createdAt,value
2022-11-30T00:01:25.907Z,100612.00
2022-11-30T00:06:30.011Z,100606.50
2022-11-30T00:11:33.842Z,100607.25
2022-11-30T00:16:36.692Z,100609.06
2022-11-30T00:21:40.993Z,100609.63
2022-11-30T00:26:44.459Z,100607.69
2022-11-30T00:31:47.446Z,100617.53
2022-11-30T00:36:51.610Z,100614.16
2022-11-30T00:41:54.382Z,100622.94
2022-11-30T00:46:57.141Z,100627.13
2022-11-30T00:52:01.443Z,100619.69
2022-11-30T00:57:04.284Z,100619.81
2022-11-30T01:02:07.242Z,100623.13
2022-11-30T01:07:11.424Z,100629.19
2022-11-30T01:12:15.608Z,100621.09
2022-11-30T01:17:18.895Z,100629.94
2022-11-30T01:22:23.019Z,100621.09
2022-11-30T01:27:25.815Z,100631.91
2022-11-30T01:32:29.187Z,100631.69
2022-11-30T01:37:33.583Z,100623.38
2022-11-30T01:42:37.966Z,100620.00
2022-11-30T01:47:44.260Z,100618.09
2022-11-30T01:52:51.708Z,100620.00
2022-11-30T01:58:00.084Z,100621.66
2022-11-30T02:03:08.468Z,100628.03
2022-11-30T02:08:13.019Z,100631.78
2022-11-30T02:13:31.587Z,100623.06
2022-11-30T02:18:47.848Z,100627.03
2022-11-30T02:24:07.432Z,100626.47
2022-11-30T02:29:17.561Z,100630.25
2022-11-30T02:34:23.181Z,100637.03
2022-11-30T02:39:26.200Z,100637.44
2022-11-30T02:44:31.387Z,100639.38
2022-11-30T02:49:39.371Z,100643.38
2022-11-30T02:54:42.587Z,100646.13
2022-11-30T02:59:46.885Z,100644.41
2022-11-30T03:04:49.722Z,100650.13
2022-11-30T03:09:52.560Z,100648.50
2022-11-30T03:14:56.645Z,100639.63
2022-11-30T03:19:59.438Z,100653.50
2022-11-30T03:25:02.419Z,100657.25
2022-11-30T03:30:08.215Z,100659.22
2022-11-30T03:35:11.196Z,100663.91
2022-11-30T03:40:14.250Z,100668.63
2022-11-30T03:45:18.615Z,100674.25
2022-11-30T03:50:21.407Z,100678.09
2022-11-30T03:55:24.307Z,100670.31
2022-11-30T04:00:28.509Z,100677.81
2022-11-30T04:05:31.416Z,100673.63
2022-11-30T04:10:34.355Z,100678.44
2022-11-30T04:15:38.466Z,100683.88
2022-11-30T04:20:41.962Z,100685.72
2022-11-30T04:25:44.841Z,100684.09
2022-11-30T04:30:49.321Z,100679.88
2022-11-30T04:35:55.961Z,100677.47
2022-11-30T04:40:58.768Z,100680.25
2022-11-30T04:46:03.085Z,100686.03
2022-11-30T04:51:08.229Z,100685.47
2022-11-30T04:56:12.933Z,100684.03
2022-11-30T05:01:17.523Z,100677.88
2022-11-30T05:06:20.571Z,100678.16
2022-11-30T05:11:23.346Z,100683.81
2022-11-30T05:16:27.778Z,100693.97
2022-11-30T05:21:30.680Z,100688.81
2022-11-30T05:26:34.251Z,100698.97
2022-11-30T05:31:39.788Z,100697.44
2022-11-30T05:36:42.672Z,100695.88
2022-11-30T05:41:45.540Z,100703.28
2022-11-30T05:46:50.089Z,100703.56
2022-11-30T05:51:52.960Z,100711.81
2022-11-30T05:56:55.853Z,100709.41
2022-11-30T06:02:00.067Z,100716.81
2022-11-30T06:07:04.374Z,100720.72
2022-11-30T06:12:07.847Z,100731.66
2022-11-30T06:17:11.980Z,100729.25
2022-11-30T06:22:14.797Z,100740.19
2022-11-30T06:27:17.596Z,100734.97
2022-11-30T06:32:21.737Z,100743.25
2022-11-30T06:37:24.464Z,100749.75
2022-11-30T06:42:27.239Z,100749.94
2022-11-30T06:47:31.468Z,100753.75
2022-11-30T06:52:34.368Z,100755.75
2022-11-30T06:57:37.205Z,100756.81
2022-11-30T07:02:41.647Z,100770.41
2022-11-30T07:07:44.451Z,100768.81
2022-11-30T07:12:47.283Z,100769.88
2022-11-30T07:17:51.409Z,100781.69
2022-11-30T07:22:56.441Z,100774.75
2022-11-30T07:27:59.282Z,100780.22
2022-11-30T07:33:03.549Z,100785.75
2022-11-30T07:38:09.707Z,100781.44
2022-11-30T07:43:12.755Z,100781.59
2022-11-30T07:48:16.841Z,100791.56
2022-11-30T07:53:19.804Z,100787.06
2022-11-30T07:58:22.561Z,100789.03
2022-11-30T08:03:26.656Z,100790.84
2022-11-30T08:08:33.571Z,100797.81
2022-11-30T08:13:36.397Z,100797.22
2022-11-30T08:18:41.121Z,100799.28
2022-11-30T08:23:46.074Z,100798.09
2022-11-30T08:28:50.699Z,100801.56
2022-11-30T08:33:58.414Z,100799.75
2022-11-30T08:39:04.839Z,100791.78
2022-11-30T08:44:08.016Z,100796.34
2022-11-30T08:49:27.828Z,100795.47
2022-11-30T08:54:30.669Z,100801.88
2022-11-30T08:59:33.681Z,100798.38
2022-11-30T09:04:37.832Z,100812.91
2022-11-30T09:09:40.664Z,100810.34
2022-11-30T09:14:45.085Z,100812.28
2022-11-30T09:19:49.366Z,100817.75
2022-11-30T09:24:52.324Z,100814.25
2022-11-30T09:29:55.091Z,100825.97
2022-11-30T09:34:59.345Z,100827.78
2022-11-30T09:40:02.301Z,100824.34
2022-11-30T09:45:12.985Z,100826.22
2022-11-30T09:50:21.468Z,100825.44
2022-11-30T09:55:29.673Z,100819.22
2022-11-30T10:00:34.405Z,100826.50
2022-11-30T10:05:47.836Z,100821.75
2022-11-30T10:11:13.621Z,100825.00
2022-11-30T10:16:32.065Z,100817.66
2022-11-30T10:21:51.780Z,100829.13
2022-11-30T10:26:56.189Z,100822.59
2022-11-30T10:32:01.182Z,100827.81
2022-11-30T10:37:13.553Z,100820.63
2022-11-30T10:42:21.949Z,100822.94
2022-11-30T10:47:31.038Z,100827.03
2022-11-30T10:52:42.743Z,100815.09
2022-11-30T10:57:47.967Z,100818.84
2022-11-30T11:02:52.057Z,100810.53
2022-11-30T11:08:05.741Z,100808.97
2022-11-30T11:13:17.585Z,100807.81
2022-11-30T11:18:24.083Z,100803.22
2022-11-30T11:23:33.518Z,100800.38
2022-11-30T11:28:38.210Z,100797.72
2022-11-30T11:33:51.983Z,100801.63
2022-11-30T11:38:57.533Z,100794.84
2022-11-30T11:44:05.326Z,100798.88
2022-11-30T11:49:20.217Z,100810.84
2022-11-30T11:54:29.505Z,100809.53
2022-11-30T11:59:41.770Z,100809.16
2022-11-30T12:04:49.248Z,100827.28
2022-11-30T12:10:21.860Z,100821.13
2022-11-30T12:15:33.996Z,100819.53
2022-11-30T12:20:51.724Z,100813.66
2022-11-30T12:26:03.175Z,100812.44
2022-11-30T12:31:13.805Z,100812.19
2022-11-30T12:36:26.368Z,100804.81
2022-11-30T12:41:42.983Z,100809.31
2022-11-30T12:46:57.344Z,100809.31
2022-11-30T12:52:07.711Z,100809.03
2022-11-30T12:57:22.415Z,100811.66
2022-11-30T13:02:54.110Z,100814.72
2022-11-30T13:08:04.533Z,100811.88
2022-11-30T13:13:15.457Z,100818.78
2022-11-30T13:18:21.134Z,100826.59
2022-11-30T13:23:35.881Z,100819.19
2022-11-30T13:29:02.051Z,100823.50
2022-11-30T13:34:04.877Z,100827.00
2022-11-30T13:39:28.915Z,100830.56
2022-11-30T13:44:35.138Z,100829.75
2022-11-30T13:49:38.436Z,100826.31
2022-11-30T13:54:43.907Z,100829.16
2022-11-30T13:59:51.544Z,100829.47
2022-11-30T14:04:54.367Z,100844.09
2022-11-30T14:10:00.099Z,100837.13
2022-11-30T14:15:25.363Z,100837.34
2022-11-30T14:20:37.963Z,100845.59
2022-11-30T14:25:46.836Z,100843.97
2022-11-30T14:30:52.689Z,100850.22
2022-11-30T14:47:30.062Z,100860.78
2022-11-30T14:52:56.445Z,100861.75
2022-11-30T14:58:13.220Z,100859.06
2022-11-30T15:03:27.095Z,100862.81
2022-11-30T15:08:36.210Z,100862.63
2022-11-30T15:13:42.404Z,100857.16
2022-11-30T15:18:46.619Z,100865.16
2022-11-30T15:23:51.405Z,100859.69
2022-11-30T15:28:59.135Z,100872.78
2022-11-30T15:34:04.840Z,100873.59
2022-11-30T15:39:09.632Z,100876.34
2022-11-30T15:44:25.904Z,100880.09
2022-11-30T15:49:32.151Z,100882.97
2022-11-30T15:54:50.169Z,100876.94
2022-11-30T16:00:09.865Z,100881.66
2022-11-30T16:05:26.869Z,100884.63
2022-11-30T16:10:33.826Z,100882.09
2022-11-30T16:15:37.539Z,100888.53
2022-11-30T16:20:43.437Z,100889.66
2022-11-30T16:25:47.902Z,100888.09
2022-11-30T16:30:51.282Z,100896.38
2022-11-30T16:35:59.346Z,100885.69
2022-11-30T16:41:15.124Z,100900.38
2022-11-30T16:46:19.967Z,100900.53
2022-11-30T16:51:27.233Z,100902.47
2022-11-30T16:56:30.230Z,100906.97
2022-11-30T17:01:36.649Z,100906.88
2022-11-30T17:06:40.879Z,100917.03
2022-11-30T17:11:45.432Z,100923.53
2022-11-30T17:16:48.524Z,100923.88
2022-11-30T17:21:52.813Z,100935.16
2022-11-30T17:26:55.620Z,100938.38
2022-11-30T17:31:58.385Z,100945.34
2022-11-30T17:37:02.578Z,100951.50
2022-11-30T17:42:05.546Z,100961.91
2022-11-30T17:47:08.953Z,100957.38
2022-11-30T17:52:13.104Z,100972.50
2022-11-30T17:57:16.008Z,100967.13
2022-11-30T18:02:18.828Z,100966.91
2022-11-30T18:07:23.075Z,100967.78
2022-11-30T18:12:25.913Z,100976.66
2022-11-30T18:17:28.738Z,100981.84
2022-11-30T18:22:33.011Z,100990.03
2022-11-30T18:27:35.975Z,101000.91
2022-11-30T18:32:38.831Z,100997.25
2022-11-30T18:37:43.472Z,101002.63
2022-11-30T18:42:48.897Z,101006.19
2022-11-30T18:47:52.058Z,101011.69
2022-11-30T18:52:56.623Z,101017.69
2022-11-30T18:58:01.063Z,101029.13
2022-11-30T19:03:04.018Z,101030.69
2022-11-30T19:08:11.459Z,101028.59
2022-11-30T19:13:14.207Z,101029.09
2022-11-30T19:18:21.789Z,101031.31
2022-11-30T19:23:27.888Z,101036.38
2022-11-30T19:28:31.310Z,101032.44
2022-11-30T19:33:36.484Z,101032.16
2022-11-30T19:38:41.157Z,101039.03
2022-11-30T19:43:49.401Z,101031.75
2022-11-30T19:48:57.974Z,101038.59
2022-11-30T19:54:02.640Z,101037.53
2022-11-30T19:59:06.287Z,101038.31
2022-11-30T20:04:09.344Z,101031.84
2022-11-30T20:09:13.428Z,101038.88
2022-11-30T20:14:17.319Z,101039.78
2022-11-30T20:19:20.063Z,101044.09
2022-11-30T20:24:24.201Z,101040.44
2022-11-30T20:29:26.981Z,101047.50
2022-11-30T20:34:34.320Z,101051.81
2022-11-30T20:39:45.764Z,101048.16
2022-11-30T20:44:49.921Z,101057.97
2022-11-30T20:49:53.209Z,101058.88
2022-11-30T20:54:57.524Z,101058.78
2022-11-30T21:00:00.327Z,101055.88
2022-11-30T21:05:03.282Z,101061.25
2022-11-30T21:10:09.134Z,101061.19
2022-11-30T21:15:12.276Z,101065.50
2022-11-30T21:20:15.162Z,101072.66
2022-11-30T21:25:19.777Z,101081.59
2022-11-30T21:30:22.543Z,101081.59
2022-11-30T21:35:25.410Z,101086.06
2022-11-30T21:40:29.560Z,101084.22
2022-11-30T21:45:32.344Z,101089.41
2022-11-30T21:50:35.079Z,101080.56
2022-11-30T21:55:39.361Z,101087.69
2022-11-30T22:00:42.218Z,101098.38
2022-11-30T22:05:45.025Z,101086.72
2022-11-30T22:10:49.317Z,101090.50
2022-11-30T22:15:58.530Z,101088.75
2022-11-30T22:21:05.950Z,101084.41
2022-11-30T22:26:15.067Z,101094.44
2022-11-30T22:31:20.438Z,101091.91
2022-11-30T22:36:25.567Z,101101.13
2022-11-30T22:41:30.170Z,101106.72
2022-11-30T22:46:35.202Z,101102.38
2022-11-30T22:51:39.016Z,101114.22
2022-11-30T22:56:43.267Z,101102.69
2022-11-30T23:01:47.677Z,101109.91
2022-11-30T23:06:51.630Z,101101.97
2022-11-30T23:11:55.771Z,101095.72
2022-11-30T23:16:58.539Z,101087.78
2022-11-30T23:22:01.397Z,101088.75
2022-11-30T23:27:05.517Z,101093.38
2022-11-30T23:32:09.098Z,101097.97
2022-11-30T23:37:11.885Z,101091.81
2022-11-30T23:42:16.021Z,101093.66
2022-11-30T23:47:18.909Z,101083.03
2022-11-30T23:52:21.894Z,101082.25
2022-11-30T23:57:26.049Z,101088.50
